Time;durP1;ratioP1;P1;durP2;ratioP2;P2;SDS_P1;SDS_P2;PMS_P1;PMS_P2;Temp;Humidity;BMP_temperature;BMP_pressure;BME280_temperature;BME280_humidity;BME280_pressure;Samples;Min_cycle;Max_cycle;Signal;HPM_P1;HPM_P2
2022/09/23 00:00:41;;;;;;;;;;;4.00;99.90;;;;;;5048865;28;19921;-87
2022/09/23 00:03:06;;;;;;;;;;;3.90;99.90;;;;;;5048818;28;20376;-87
2022/09/23 00:05:32;;;;;;;;;;;4.00;99.90;;;;;;5047388;28;19963;-86
2022/09/23 00:07:58;;;;;;;;;;;3.90;99.90;;;;;;5048806;28;19947;-88
2022/09/23 00:10:24;;;;;;;;;;;4.10;99.90;;;;;;5057222;28;20330;-85
2022/09/23 00:12:49;;;;;;;;;;;4.10;99.90;;;;;;5049509;28;19959;-87
2022/09/23 00:15:15;;;;;;;;;;;4.10;99.90;;;;;;5050143;28;19913;-87
2022/09/23 00:17:41;;;;;;;;;;;4.00;99.90;;;;;;5049530;28;19913;-85
2022/09/23 00:20:08;;;;;;;;;;;4.00;99.90;;;;;;5008000;28;19917;-87
2022/09/23 00:22:35;;;;;;;;;;;4.00;99.90;;;;;;5050037;28;19921;-86
2022/09/23 00:25:05;;;;;;;;;;;4.00;99.90;;;;;;5051687;28;19908;-86
2022/09/23 00:27:32;;;;;;;;;;;3.90;99.90;;;;;;5049713;28;20012;-86
2022/09/23 00:29:57;;;;;;;;;;;3.80;99.90;;;;;;5045315;28;19913;-89
2022/09/23 00:32:23;;;;;;;;;;;3.80;99.90;;;;;;5053906;28;19917;-86
2022/09/23 00:34:50;;;;;;;;;;;3.80;99.90;;;;;;5056957;28;20030;-87
2022/09/23 00:37:15;;;;;;;;;;;3.80;99.90;;;;;;5044487;28;19920;-87
2022/09/23 00:39:41;;;;;;;;;;;3.80;99.90;;;;;;5045634;28;19908;-89
2022/09/23 00:42:12;;;;;;;;;;;3.70;99.90;;;;;;5048689;28;19925;-88
2022/09/23 00:44:57;;;;;;;;;;;3.70;99.90;;;;;;5053824;28;19912;-86
2022/09/23 00:47:32;;;;;;;;;;;3.70;99.90;;;;;;5050205;28;19962;-86
2022/09/23 00:50:11;;;;;;;;;;;3.60;99.90;;;;;;5042949;28;20003;-88
2022/09/23 00:52:37;;;;;;;;;;;3.50;99.90;;;;;;5051098;28;20004;-88
2022/09/23 00:55:06;;;;;;;;;;;3.50;99.90;;;;;;5048013;28;20486;-87
2022/09/23 00:57:32;;;;;;;;;;;3.40;99.90;;;;;;5048267;28;19912;-87
2022/09/23 00:59:58;;;;;;;;;;;3.30;99.90;;;;;;5053999;28;19917;-86
2022/09/23 01:02:24;;;;;;;;;;;3.30;99.90;;;;;;5023692;28;19928;-86
2022/09/23 01:04:50;;;;;;;;;;;3.30;99.90;;;;;;5050834;28;19924;-87
2022/09/23 01:07:16;;;;;;;;;;;3.30;99.90;;;;;;5064501;28;19917;-89
2022/09/23 01:09:42;;;;;;;;;;;3.30;99.90;;;;;;5051823;28;19917;-88
2022/09/23 01:12:28;;;;;;;;;;;3.30;99.90;;;;;;5049929;28;19974;-86
2022/09/23 01:15:12;;;;;;;;;;;3.30;99.90;;;;;;5041580;28;19917;-87
2022/09/23 01:18:01;;;;;;;;;;;3.30;99.90;;;;;;5043070;28;19919;-86
2022/09/23 01:20:45;;;;;;;;;;;3.30;99.90;;;;;;5026115;28;19916;-89
2022/09/23 01:23:10;;;;;;;;;;;3.30;99.90;;;;;;5054109;28;20015;-87
2022/09/23 01:25:48;;;;;;;;;;;3.30;99.90;;;;;;5052190;28;20023;-87
2022/09/23 01:28:32;;;;;;;;;;;3.30;99.90;;;;;;5046756;28;19916;-87
2022/09/23 01:31:00;;;;;;;;;;;3.30;99.90;;;;;;5046880;28;19927;-87
2022/09/23 01:33:42;;;;;;;;;;;3.30;99.90;;;;;;5044072;28;19916;-87
2022/09/23 01:36:13;;;;;;;;;;;3.20;99.90;;;;;;5046461;28;19913;-88
2022/09/23 01:38:57;;;;;;;;;;;3.10;99.90;;;;;;5052017;28;19908;-89
2022/09/23 01:41:28;;;;;;;;;;;3.10;99.90;;;;;;5046955;28;19912;-87
2022/09/23 01:43:54;;;;;;;;;;;3.10;99.90;;;;;;5041145;28;19970;-87
2022/09/23 01:46:26;;;;;;;;;;;3.10;99.90;;;;;;5048689;28;19913;-86
2022/09/23 01:48:58;;;;;;;;;;;3.10;99.90;;;;;;5049640;28;20612;-86
2022/09/23 01:51:27;;;;;;;;;;;3.00;99.90;;;;;;5049322;28;19913;-87
2022/09/23 01:53:58;;;;;;;;;;;3.00;99.90;;;;;;5048998;28;19919;-86
2022/09/23 01:56:33;;;;;;;;;;;3.00;99.90;;;;;;5050496;28;19912;-87
2022/09/23 01:59:10;;;;;;;;;;;3.00;99.90;;;;;;5040195;28;20003;-85
2022/09/23 02:01:43;;;;;;;;;;;3.00;99.90;;;;;;5044630;28;19924;-87
2022/09/23 02:04:11;;;;;;;;;;;2.90;99.90;;;;;;5046045;28;19913;-89
2022/09/23 02:06:58;;;;;;;;;;;2.90;99.90;;;;;;5051692;28;19912;-87
2022/09/23 02:09:27;;;;;;;;;;;2.90;99.90;;;;;;5046654;28;19978;-87
2022/09/23 02:11:56;;;;;;;;;;;2.90;99.90;;;;;;5041022;28;19913;-85
2022/09/23 02:14:29;;;;;;;;;;;2.90;99.90;;;;;;5042805;28;19915;-88
2022/09/23 02:16:58;;;;;;;;;;;2.90;99.90;;;;;;5051508;28;19962;-86
2022/09/23 02:19:33;;;;;;;;;;;2.90;99.90;;;;;;5050174;28;19917;-87
2022/09/23 02:22:02;;;;;;;;;;;2.80;99.90;;;;;;5045053;28;20006;-88
2022/09/23 02:24:30;;;;;;;;;;;2.70;99.90;;;;;;5047680;28;19948;-88
2022/09/23 02:27:05;;;;;;;;;;;2.70;99.90;;;;;;5038771;28;20003;-87
2022/09/23 02:29:35;;;;;;;;;;;2.70;99.90;;;;;;5050823;28;20386;-87
2022/09/23 02:32:11;;;;;;;;;;;2.60;99.90;;;;;;5036222;28;19913;-87
2022/09/23 02:34:44;;;;;;;;;;;2.70;99.90;;;;;;5042472;28;20387;-88
2022/09/23 02:37:27;;;;;;;;;;;2.70;99.90;;;;;;5034445;28;19912;-87
2022/09/23 02:40:02;;;;;;;;;;;2.70;99.90;;;;;;5047086;28;19920;-86
2022/09/23 02:42:32;;;;;;;;;;;2.70;99.90;;;;;;5042976;28;19917;-87
2022/09/23 02:44:57;;;;;;;;;;;2.80;99.90;;;;;;5051020;28;20058;-87
2022/09/23 02:47:26;;;;;;;;;;;2.70;99.90;;;;;;5044971;28;20058;-88
2022/09/23 02:49:55;;;;;;;;;;;2.60;99.90;;;;;;5050055;28;20288;-87
2022/09/23 02:52:20;;;;;;;;;;;2.60;99.90;;;;;;5046502;28;19948;-86
2022/09/23 02:54:46;;;;;;;;;;;2.60;99.90;;;;;;5038179;28;20269;-86
2022/09/23 02:57:13;;;;;;;;;;;2.50;99.90;;;;;;5039339;28;19917;-87
2022/09/23 02:59:39;;;;;;;;;;;2.50;99.90;;;;;;5050581;28;20041;-88
2022/09/23 03:02:05;;;;;;;;;;;2.50;99.90;;;;;;5046552;28;20300;-87
2022/09/23 03:04:33;;;;;;;;;;;2.60;99.90;;;;;;5050339;28;19909;-87
2022/09/23 03:07:12;;;;;;;;;;;2.70;99.90;;;;;;5047156;28;19920;-88
2022/09/23 03:09:37;;;;;;;;;;;2.60;99.90;;;;;;5039680;28;19912;-88
2022/09/23 03:12:09;;;;;;;;;;;2.60;99.90;;;;;;5034899;28;20690;-86
2022/09/23 03:14:40;;;;;;;;;;;2.70;99.90;;;;;;5042239;28;19912;-87
2022/09/23 03:17:26;;;;;;;;;;;2.60;99.90;;;;;;5047286;28;20383;-88
2022/09/23 03:19:57;;;;;;;;;;;2.50;99.90;;;;;;5044326;28;20003;-85
2022/09/23 03:22:41;;;;;;;;;;;2.50;99.90;;;;;;5049748;28;19916;-87
2022/09/23 03:25:18;;;;;;;;;;;2.50;99.90;;;;;;5030483;28;19919;-89
2022/09/23 03:27:44;;;;;;;;;;;2.50;99.90;;;;;;5031488;28;19917;-89
2022/09/23 03:30:11;;;;;;;;;;;2.50;99.90;;;;;;5045019;28;20281;-89
2022/09/23 03:32:38;;;;;;;;;;;2.50;99.90;;;;;;5037802;28;19913;-89
2022/09/23 03:35:04;;;;;;;;;;;2.60;99.90;;;;;;5047689;28;20418;-87
2022/09/23 03:37:49;;;;;;;;;;;2.60;99.90;;;;;;5041156;28;19921;-86
2022/09/23 03:40:31;;;;;;;;;;;2.50;99.90;;;;;;5049616;28;20363;-87
2022/09/23 03:42:57;;;;;;;;;;;2.50;99.90;;;;;;5034210;28;19927;-88
2022/09/23 03:45:26;;;;;;;;;;;2.40;99.90;;;;;;5043811;28;19913;-89
2022/09/23 03:47:51;;;;;;;;;;;2.50;99.90;;;;;;5034698;28;19913;-87
2022/09/23 03:50:17;;;;;;;;;;;2.40;99.90;;;;;;5045076;28;19909;-87
2022/09/23 03:52:43;;;;;;;;;;;2.40;99.90;;;;;;5048366;28;19921;-87
2022/09/23 03:55:09;;;;;;;;;;;2.40;99.90;;;;;;5054484;28;20278;-89
2022/09/23 03:57:35;;;;;;;;;;;2.40;99.90;;;;;;5047888;28;19956;-88
2022/09/23 04:00:00;;;;;;;;;;;2.40;99.90;;;;;;5044506;28;20341;-88
2022/09/23 04:02:26;;;;;;;;;;;2.30;99.90;;;;;;5033032;28;19921;-86
2022/09/23 04:04:51;;;;;;;;;;;2.20;99.90;;;;;;5047455;28;19920;-87
2022/09/23 04:07:17;;;;;;;;;;;2.20;99.90;;;;;;5047582;28;20376;-87
2022/09/23 04:09:43;;;;;;;;;;;2.30;99.90;;;;;;5034674;28;19959;-86
2022/09/23 04:12:12;;;;;;;;;;;2.30;99.90;;;;;;5044780;28;19917;-86
2022/09/23 04:14:38;;;;;;;;;;;2.30;99.90;;;;;;5045787;28;19999;-89
2022/09/23 04:17:03;;;;;;;;;;;2.30;99.90;;;;;;5045027;28;20007;-87
2022/09/23 04:19:29;;;;;;;;;;;2.30;99.90;;;;;;5038286;28;19909;-87
2022/09/23 04:21:54;;;;;;;;;;;2.30;99.90;;;;;;5047521;28;19951;-89
2022/09/23 04:24:20;;;;;;;;;;;2.30;99.90;;;;;;5043427;28;20463;-87
2022/09/23 04:26:48;;;;;;;;;;;2.30;99.90;;;;;;5034102;28;19943;-86
2022/09/23 04:29:14;;;;;;;;;;;2.30;99.90;;;;;;5036704;28;20394;-86
2022/09/23 04:31:40;;;;;;;;;;;2.20;99.90;;;;;;5031104;28;20015;-87
2022/09/23 04:34:06;;;;;;;;;;;2.30;99.90;;;;;;5031919;28;19916;-87
2022/09/23 04:36:32;;;;;;;;;;;2.30;99.90;;;;;;5036972;28;20076;-86
2022/09/23 04:38:57;;;;;;;;;;;2.30;99.90;;;;;;5033315;28;20016;-89
2022/09/23 04:41:23;;;;;;;;;;;2.30;99.90;;;;;;5048871;28;19912;-86
2022/09/23 04:43:48;;;;;;;;;;;2.40;99.90;;;;;;5041742;28;19916;-85
2022/09/23 04:46:14;;;;;;;;;;;2.30;99.90;;;;;;5049223;28;19919;-86
2022/09/23 04:48:40;;;;;;;;;;;2.40;99.90;;;;;;5035792;28;19913;-88
2022/09/23 04:51:17;;;;;;;;;;;2.30;99.90;;;;;;5032277;28;19920;-86
2022/09/23 04:53:43;;;;;;;;;;;2.40;99.90;;;;;;5043144;28;19913;-86
2022/09/23 04:56:10;;;;;;;;;;;2.40;99.90;;;;;;5047024;28;19992;-88
2022/09/23 04:58:36;;;;;;;;;;;2.30;99.90;;;;;;5041439;28;19960;-87
2022/09/23 05:01:10;;;;;;;;;;;2.30;99.90;;;;;;5043723;28;19967;-88
2022/09/23 05:03:35;;;;;;;;;;;2.30;99.90;;;;;;5045756;28;19995;-85
2022/09/23 05:06:01;;;;;;;;;;;2.30;99.90;;;;;;5045549;28;20047;-87
2022/09/23 05:08:26;;;;;;;;;;;2.30;99.90;;;;;;5048168;28;19996;-87
2022/09/23 05:10:56;;;;;;;;;;;2.30;99.90;;;;;;5050754;28;19920;-88
2022/09/23 05:13:21;;;;;;;;;;;2.30;99.90;;;;;;5050270;28;19913;-86
2022/09/23 05:15:47;;;;;;;;;;;2.30;99.90;;;;;;5045527;28;19920;-88
2022/09/23 05:18:12;;;;;;;;;;;2.30;99.90;;;;;;5034081;28;19917;-88
2022/09/23 05:20:38;;;;;;;;;;;2.30;99.90;;;;;;5036248;28;19931;-86
2022/09/23 05:23:03;;;;;;;;;;;2.40;99.90;;;;;;5029778;28;19928;-86
2022/09/23 05:25:29;;;;;;;;;;;2.40;99.90;;;;;;5052084;28;19920;-77
2022/09/23 05:27:54;;;;;;;;;;;2.40;99.90;;;;;;5040303;28;19956;-75
2022/09/23 05:30:20;;;;;;;;;;;2.50;99.90;;;;;;5040398;28;19932;-75
2022/09/23 05:32:45;;;;;;;;;;;2.40;99.90;;;;;;5036388;28;19913;-75
2022/09/23 05:35:11;;;;;;;;;;;2.40;99.90;;;;;;5044548;28;20383;-76
2022/09/23 05:37:37;;;;;;;;;;;2.50;99.90;;;;;;5050112;28;19999;-75
2022/09/23 05:40:02;;;;;;;;;;;2.40;99.90;;;;;;5048506;28;19921;-75
2022/09/23 05:42:28;;;;;;;;;;;2.60;99.90;;;;;;5038712;28;20410;-86
2022/09/23 05:44:55;;;;;;;;;;;2.70;99.90;;;;;;5063425;28;20418;-85
2022/09/23 05:47:20;;;;;;;;;;;2.80;99.90;;;;;;5050550;28;19999;-84
2022/09/23 05:49:46;;;;;;;;;;;2.80;99.90;;;;;;5046775;28;20015;-85
2022/09/23 05:52:12;;;;;;;;;;;2.90;99.90;;;;;;5040573;28;20349;-85
2022/09/23 05:54:37;;;;;;;;;;;3.00;99.90;;;;;;5036456;28;19913;-86
2022/09/23 05:57:03;;;;;;;;;;;3.10;99.90;;;;;;5038948;28;19920;-85
2022/09/23 05:59:28;;;;;;;;;;;3.20;99.90;;;;;;5048654;28;19912;-84
2022/09/23 06:01:55;;;;;;;;;;;3.30;99.90;;;;;;5041559;28;19919;-85
2022/09/23 06:04:20;;;;;;;;;;;3.50;99.90;;;;;;5050029;28;19944;-87
2022/09/23 06:06:46;;;;;;;;;;;3.60;99.90;;;;;;5045542;28;20367;-86
2022/09/23 06:09:12;;;;;;;;;;;3.60;99.90;;;;;;5038680;28;19983;-87
2022/09/23 06:11:38;;;;;;;;;;;3.70;99.90;;;;;;5035165;28;19956;-84
2022/09/23 06:14:04;;;;;;;;;;;3.70;99.90;;;;;;5044793;28;19959;-86
2022/09/23 06:16:31;;;;;;;;;;;3.60;99.90;;;;;;5042013;28;19915;-86
2022/09/23 06:18:56;;;;;;;;;;;3.80;99.90;;;;;;5040654;28;19912;-86
2022/09/23 06:21:22;;;;;;;;;;;3.90;99.90;;;;;;5057193;28;20323;-85
2022/09/23 06:23:47;;;;;;;;;;;4.00;99.90;;;;;;5045494;28;19997;-84
2022/09/23 06:26:14;;;;;;;;;;;4.00;99.90;;;;;;5051712;28;19966;-85
2022/09/23 06:28:40;;;;;;;;;;;4.10;99.90;;;;;;5058534;28;19912;-85
2022/09/23 06:31:07;;;;;;;;;;;4.20;99.90;;;;;;5038807;28;19940;-85
2022/09/23 06:33:33;;;;;;;;;;;4.30;99.90;;;;;;5031655;28;19920;-84
2022/09/23 06:35:59;;;;;;;;;;;4.30;99.90;;;;;;5037573;28;19917;-84
2022/09/23 06:38:25;;;;;;;;;;;4.50;99.90;;;;;;5040313;28;20376;-84
2022/09/23 06:40:51;;;;;;;;;;;4.60;99.90;;;;;;5048698;28;19923;-85
2022/09/23 06:43:17;;;;;;;;;;;4.70;99.90;;;;;;5048577;28;19925;-84
2022/09/23 06:45:43;;;;;;;;;;;4.80;99.90;;;;;;5036708;28;19916;-85
2022/09/23 06:48:08;;;;;;;;;;;5.00;99.90;;;;;;5030806;28;19913;-84
2022/09/23 06:50:34;;;;;;;;;;;5.20;99.90;;;;;;5039941;28;19917;-84
2022/09/23 06:53:00;;;;;;;;;;;5.30;99.90;;;;;;5042798;28;19920;-85
2022/09/23 06:55:26;;;;;;;;;;;5.50;99.90;;;;;;5036991;28;19913;-84
2022/09/23 06:57:53;;;;;;;;;;;5.50;99.90;;;;;;5045265;28;19913;-85
2022/09/23 07:00:18;;;;;;;;;;;5.60;99.90;;;;;;5043149;28;20327;-84
2022/09/23 07:02:44;;;;;;;;;;;5.80;99.90;;;;;;5041501;28;19920;-83
2022/09/23 07:05:10;;;;;;;;;;;5.90;99.90;;;;;;5042381;28;19920;-84
2022/09/23 07:07:36;;;;;;;;;;;6.00;99.90;;;;;;5037414;28;19927;-85
2022/09/23 07:10:03;;;;;;;;;;;6.20;99.90;;;;;;5049447;28;19991;-83
2022/09/23 07:12:29;;;;;;;;;;;6.30;99.90;;;;;;5049303;28;19917;-83
2022/09/23 07:14:56;;;;;;;;;;;6.30;99.90;;;;;;5046092;28;19920;-84
2022/09/23 07:17:23;;;;;;;;;;;6.40;99.90;;;;;;5046201;28;20339;-84
2022/09/23 07:19:48;;;;;;;;;;;6.50;99.90;;;;;;5047912;28;19986;-83
2022/09/23 07:22:14;;;;;;;;;;;6.60;99.90;;;;;;5041501;28;20656;-84
2022/09/23 07:24:39;;;;;;;;;;;6.60;99.90;;;;;;5043795;28;20384;-83
2022/09/23 07:27:05;;;;;;;;;;;6.70;99.90;;;;;;5044501;28;19951;-84
2022/09/23 07:29:30;;;;;;;;;;;6.80;99.90;;;;;;5044104;28;19944;-83
2022/09/23 07:31:56;;;;;;;;;;;7.00;99.90;;;;;;5034692;28;20274;-83
2022/09/23 07:34:21;;;;;;;;;;;6.90;99.90;;;;;;5034811;28;19979;-83
2022/09/23 07:36:47;;;;;;;;;;;7.00;99.90;;;;;;5049323;28;19912;-83
2022/09/23 07:39:12;;;;;;;;;;;7.10;99.90;;;;;;5050865;28;20011;-83
2022/09/23 07:41:38;;;;;;;;;;;7.30;99.90;;;;;;5047133;28;19958;-83
2022/09/23 07:44:05;;;;;;;;;;;7.30;99.90;;;;;;5045190;28;19987;-83
2022/09/23 07:46:31;;;;;;;;;;;7.50;99.90;;;;;;5037001;28;20343;-83
2022/09/23 07:48:57;;;;;;;;;;;7.80;99.90;;;;;;5045192;28;19947;-83
2022/09/23 07:51:30;;;;;;;;;;;8.00;99.90;;;;;;5044646;28;19913;-83
2022/09/23 07:53:56;;;;;;;;;;;8.00;99.90;;;;;;5033415;28;20392;-83
2022/09/23 07:56:25;;;;;;;;;;;8.20;99.90;;;;;;5049392;28;19952;-82
2022/09/23 07:59:02;;;;;;;;;;;8.40;99.90;;;;;;5041627;28;19959;-82
2022/09/23 08:01:38;;;;;;;;;;;8.40;99.90;;;;;;5046255;28;19917;-82
2022/09/23 08:04:05;;;;;;;;;;;8.60;99.90;;;;;;5033053;28;19928;-82
2022/09/23 08:06:31;;;;;;;;;;;8.80;99.90;;;;;;5041150;28;20384;-82
2022/09/23 08:08:57;;;;;;;;;;;9.10;99.90;;;;;;5048900;28;19919;-82
2022/09/23 08:11:23;;;;;;;;;;;9.30;99.90;;;;;;5046686;28;20398;-81
2022/09/23 08:13:49;;;;;;;;;;;9.60;99.90;;;;;;5041980;28;20022;-82
2022/09/23 08:16:15;;;;;;;;;;;9.70;99.90;;;;;;5045411;28;20406;-81
2022/09/23 08:18:46;;;;;;;;;;;10.00;99.90;;;;;;5043226;28;20019;-81
2022/09/23 08:21:17;;;;;;;;;;;10.10;99.90;;;;;;5045936;28;19947;-82
2022/09/23 08:23:42;;;;;;;;;;;10.40;99.90;;;;;;5038946;28;20011;-82
2022/09/23 08:26:08;;;;;;;;;;;10.50;99.90;;;;;;5054875;28;20435;-81
2022/09/23 08:28:34;;;;;;;;;;;10.50;99.90;;;;;;5042288;28;19916;-81
2022/09/23 08:30:59;;;;;;;;;;;10.70;99.90;;;;;;5049924;28;19913;-81
2022/09/23 08:33:25;;;;;;;;;;;10.90;99.90;;;;;;5048959;28;19917;-81
2022/09/23 08:35:51;;;;;;;;;;;11.10;98.10;;;;;;5044879;28;19953;-81
2022/09/23 08:38:17;;;;;;;;;;;11.20;99.90;;;;;;5047787;28;19924;-81
2022/09/23 08:40:46;;;;;;;;;;;11.60;99.80;;;;;;5048877;28;19977;-81
2022/09/23 08:43:31;;;;;;;;;;;11.90;99.00;;;;;;5040638;28;19931;-82
2022/09/23 08:46:00;;;;;;;;;;;12.30;99.40;;;;;;5040438;28;20367;-82
2022/09/23 08:48:28;;;;;;;;;;;12.70;96.60;;;;;;5036196;28;19999;-81
2022/09/23 08:50:57;;;;;;;;;;;12.80;95.80;;;;;;5043652;28;20004;-82
2022/09/23 08:53:25;;;;;;;;;;;12.70;97.30;;;;;;5049984;28;19964;-82
2022/09/23 08:55:52;;;;;;;;;;;12.90;93.70;;;;;;5038084;28;20528;-82
2022/09/23 08:58:34;;;;;;;;;;;13.20;97.00;;;;;;5043845;28;20354;-81
2022/09/23 09:01:14;;;;;;;;;;;13.40;93.50;;;;;;5046687;28;19916;-81
2022/09/23 09:03:50;;;;;;;;;;;13.80;92.40;;;;;;5035593;28;19975;-81
2022/09/23 09:06:19;;;;;;;;;;;13.90;91.80;;;;;;5040845;28;19944;-82
2022/09/23 09:08:46;;;;;;;;;;;14.00;92.20;;;;;;5034824;28;19912;-82
2022/09/23 09:11:13;;;;;;;;;;;14.10;90.40;;;;;;5049531;28;19917;-82
2022/09/23 09:13:47;;;;;;;;;;;14.40;91.50;;;;;;5044906;28;19920;-82
2022/09/23 09:16:37;;;;;;;;;;;14.30;92.30;;;;;;5049728;28;19913;-82
2022/09/23 09:19:04;;;;;;;;;;;14.60;91.00;;;;;;5045311;28;20372;-82
2022/09/23 09:21:36;;;;;;;;;;;14.50;90.10;;;;;;5044697;28;19909;-82
2022/09/23 09:24:03;;;;;;;;;;;14.70;86.30;;;;;;5054828;28;19924;-82
2022/09/23 09:26:33;;;;;;;;;;;14.60;88.20;;;;;;5044107;28;19912;-82
2022/09/23 09:29:03;;;;;;;;;;;14.70;90.50;;;;;;5052753;28;19913;-82
2022/09/23 09:31:31;;;;;;;;;;;15.00;87.60;;;;;;5036125;28;20335;-82
2022/09/23 09:34:15;;;;;;;;;;;14.80;86.60;;;;;;5027831;28;20012;-82
2022/09/23 09:36:56;;;;;;;;;;;14.80;87.00;;;;;;5046804;28;19982;-82
2022/09/23 09:39:22;;;;;;;;;;;14.60;85.70;;;;;;5024399;28;19913;-82
2022/09/23 09:41:49;;;;;;;;;;;14.80;86.80;;;;;;5028915;28;19920;-82
2022/09/23 09:44:34;;;;;;;;;;;15.00;85.30;;;;;;5023251;28;19921;-82
2022/09/23 09:47:05;;;;;;;;;;;15.00;89.80;;;;;;5024704;28;19913;-82
2022/09/23 09:49:33;;;;;;;;;;;15.40;86.30;;;;;;5022901;28;20368;-82
2022/09/23 09:52:12;;;;;;;;;;;15.50;85.10;;;;;;5024922;28;19912;-82
2022/09/23 09:54:38;;;;;;;;;;;15.80;83.90;;;;;;5044392;28;20007;-82
2022/09/23 09:57:05;;;;;;;;;;;15.90;84.80;;;;;;5031527;28;19924;-82
2022/09/23 09:59:31;;;;;;;;;;;15.50;84.10;;;;;;5041796;28;19919;-82
2022/09/23 10:02:15;;;;;;;;;;;15.90;89.20;;;;;;5027355;28;19917;-82
2022/09/23 10:04:41;;;;;;;;;;;15.80;86.30;;;;;;5048940;28;19915;-82
2022/09/23 10:07:11;;;;;;;;;;;15.60;89.80;;;;;;5042353;28;19917;-82
2022/09/23 10:09:37;;;;;;;;;;;15.40;86.00;;;;;;5033735;28;19920;-82
2022/09/23 10:14:59;;;;;;;;;;;15.60;86.70;;;;;;5039482;28;19962;-82
2022/09/23 10:17:33;;;;;;;;;;;15.40;87.20;;;;;;5046136;28;19952;-82
2022/09/23 10:20:00;;;;;;;;;;;15.70;88.30;;;;;;5044670;28;20281;-82
2022/09/23 10:22:37;;;;;;;;;;;15.70;85.70;;;;;;5039894;28;19991;-82
2022/09/23 10:25:08;;;;;;;;;;;16.00;84.10;;;;;;5042354;28;19916;-82
2022/09/23 10:27:35;;;;;;;;;;;15.90;86.30;;;;;;5047650;28;19913;-82
2022/09/23 10:30:03;;;;;;;;;;;16.00;88.50;;;;;;5049511;28;19916;-82
2022/09/23 10:32:37;;;;;;;;;;;16.20;86.10;;;;;;5038458;28;19970;-82
2022/09/23 10:35:05;;;;;;;;;;;16.60;86.40;;;;;;5043838;28;19913;-82
2022/09/23 10:37:33;;;;;;;;;;;16.90;85.30;;;;;;5046951;28;19943;-82
2022/09/23 10:48:35;;;;;;;;;;;16.30;86.90;;;;;;5048225;28;19916;-82
2022/09/23 10:51:03;;;;;;;;;;;16.20;86.50;;;;;;5035227;28;19915;-82
2022/09/23 10:53:28;;;;;;;;;;;16.60;86.40;;;;;;5047474;28;19913;-82
2022/09/23 10:55:57;;;;;;;;;;;16.70;84.10;;;;;;5037659;28;19917;-82
2022/09/23 10:58:29;;;;;;;;;;;17.30;82.30;;;;;;5037817;28;19917;-82
2022/09/23 11:01:03;;;;;;;;;;;17.40;81.60;;;;;;5041725;28;19924;-82
2022/09/23 11:03:56;;;;;;;;;;;17.50;77.90;;;;;;5047395;28;20074;-82
2022/09/23 11:06:28;;;;;;;;;;;17.70;79.40;;;;;;5027809;28;19924;-82
2022/09/23 11:09:06;;;;;;;;;;;17.60;82.00;;;;;;5041469;28;19940;-82
2022/09/23 11:11:32;;;;;;;;;;;17.70;80.70;;;;;;5045877;28;20368;-82
2022/09/23 11:14:39;;;;;;;;;;;17.70;79.60;;;;;;5041375;28;19908;-82
2022/09/23 11:17:16;;;;;;;;;;;17.50;78.20;;;;;;4957589;28;19917;-82
2022/09/23 11:20:00;;;;;;;;;;;18.00;78.10;;;;;;4982356;28;19921;-82
2022/09/23 11:22:44;;;;;;;;;;;18.20;79.80;;;;;;5020910;28;19916;-82
2022/09/23 11:25:09;;;;;;;;;;;18.30;74.70;;;;;;5033731;28;19913;-82
2022/09/23 11:27:54;;;;;;;;;;;18.50;78.20;;;;;;5037728;28;20287;-82
2022/09/23 11:30:20;;;;;;;;;;;18.50;81.40;;;;;;5035223;28;19913;-82
2022/09/23 11:32:54;;;;;;;;;;;18.20;75.00;;;;;;5044504;28;19924;-82
2022/09/23 11:35:23;;;;;;;;;;;18.70;71.90;;;;;;5039972;28;19912;-83
2022/09/23 11:37:54;;;;;;;;;;;19.00;70.80;;;;;;5042536;28;20431;-82
2022/09/23 11:40:28;;;;;;;;;;;18.80;69.30;;;;;;5036297;28;19917;-81
2022/09/23 11:42:59;;;;;;;;;;;18.90;74.70;;;;;;5043770;28;20066;-81
2022/09/23 11:45:29;;;;;;;;;;;18.70;79.60;;;;;;5037990;28;19917;-81
2022/09/23 11:47:57;;;;;;;;;;;18.70;77.20;;;;;;5044887;28;19924;-81
2022/09/23 11:50:35;;;;;;;;;;;19.10;71.20;;;;;;5046515;28;19913;-81
2022/09/23 11:53:07;;;;;;;;;;;19.50;70.80;;;;;;5031409;28;19912;-81
2022/09/23 11:55:53;;;;;;;;;;;20.10;67.70;;;;;;5046538;28;19909;-81
2022/09/23 11:58:25;;;;;;;;;;;20.60;61.60;;;;;;5040097;28;19912;-80
2022/09/23 12:00:57;;;;;;;;;;;20.50;57.90;;;;;;5042753;28;19921;-82
2022/09/23 12:03:24;;;;;;;;;;;20.40;56.70;;;;;;5039181;28;19952;-81
2022/09/23 12:05:58;;;;;;;;;;;20.70;51.40;;;;;;5043154;28;19928;-81
2022/09/23 12:08:28;;;;;;;;;;;20.90;50.50;;;;;;5042170;28;19909;-81
2022/09/23 12:11:00;;;;;;;;;;;20.80;50.20;;;;;;5034077;28;20422;-81
2022/09/23 12:13:26;;;;;;;;;;;21.20;49.70;;;;;;5046910;28;20555;-81
2022/09/23 12:15:54;;;;;;;;;;;21.70;45.60;;;;;;5033851;28;19909;-81
2022/09/23 12:18:34;;;;;;;;;;;22.20;47.60;;;;;;5045325;28;19962;-81
2022/09/23 12:21:07;;;;;;;;;;;22.60;45.30;;;;;;5039201;28;19915;-81
2022/09/23 12:23:41;;;;;;;;;;;21.90;40.60;;;;;;5046381;28;19916;-80
2022/09/23 12:26:11;;;;;;;;;;;22.60;41.40;;;;;;5034800;28;19991;-81
2022/09/23 12:28:42;;;;;;;;;;;22.70;46.50;;;;;;5042335;28;19916;-81
2022/09/23 12:31:09;;;;;;;;;;;22.80;42.90;;;;;;5047291;28;19913;-81
2022/09/23 12:33:35;;;;;;;;;;;23.50;39.10;;;;;;5034420;28;20011;-81
2022/09/23 12:36:05;;;;;;;;;;;22.60;43.60;;;;;;5056943;28;20012;-81
2022/09/23 12:38:36;;;;;;;;;;;23.00;40.00;;;;;;5033636;28;20012;-80
2022/09/23 12:41:17;;;;;;;;;;;22.70;38.00;;;;;;5045885;28;20354;-81
2022/09/23 12:43:49;;;;;;;;;;;23.40;38.30;;;;;;5045115;28;20418;-81
2022/09/23 12:46:19;;;;;;;;;;;23.50;38.20;;;;;;5048573;28;20461;-81
2022/09/23 12:48:46;;;;;;;;;;;24.50;36.70;;;;;;5040774;28;19917;-75
2022/09/23 12:51:15;;;;;;;;;;;23.60;36.70;;;;;;5030233;28;19920;-74
2022/09/23 12:53:46;;;;;;;;;;;24.00;37.10;;;;;;5044756;28;20352;-76
2022/09/23 12:56:17;;;;;;;;;;;22.50;38.60;;;;;;5046073;28;19913;-76
2022/09/23 12:58:42;;;;;;;;;;;22.10;38.50;;;;;;5053456;28;19909;-76
2022/09/23 13:01:14;;;;;;;;;;;21.60;41.80;;;;;;5044044;28;19936;-76
2022/09/23 13:06:37;;;;;;;;;;;23.50;37.60;;;;;;5044559;28;19920;-76
2022/09/23 13:09:06;;;;;;;;;;;23.40;36.70;;;;;;5046380;28;19963;-77
2022/09/23 13:11:32;;;;;;;;;;;23.70;37.70;;;;;;5039351;28;19912;-75
2022/09/23 13:14:00;;;;;;;;;;;24.40;33.70;;;;;;5044556;28;20528;-76
2022/09/23 13:16:30;;;;;;;;;;;24.80;34.40;;;;;;5013863;28;19928;-76
2022/09/23 13:18:59;;;;;;;;;;;25.40;32.50;;;;;;5034531;28;20493;-75
2022/09/23 13:21:43;;;;;;;;;;;25.90;34.20;;;;;;5034811;28;20140;-75
2022/09/23 13:24:11;;;;;;;;;;;26.50;30.40;;;;;;5029664;28;19920;-75
2022/09/23 13:26:47;;;;;;;;;;;26.80;29.00;;;;;;5047974;28;19935;-77
2022/09/23 13:29:16;;;;;;;;;;;27.80;27.30;;;;;;5038980;28;19920;-80
2022/09/23 13:31:43;;;;;;;;;;;27.80;26.60;;;;;;5040066;28;19951;-80
2022/09/23 13:34:11;;;;;;;;;;;28.00;27.70;;;;;;5044611;28;20432;-79
2022/09/23 13:36:43;;;;;;;;;;;27.40;28.30;;;;;;5042730;28;19909;-79
2022/09/23 13:39:21;;;;;;;;;;;28.20;26.90;;;;;;5036212;28;19913;-80
2022/09/23 13:41:47;;;;;;;;;;;28.00;28.00;;;;;;5042880;28;20020;-80
2022/09/23 13:44:20;;;;;;;;;;;28.00;27.60;;;;;;5043570;28;20055;-79
2022/09/23 13:46:50;;;;;;;;;;;28.40;25.70;;;;;;5047873;28;20398;-79
2022/09/23 13:49:23;;;;;;;;;;;28.30;27.80;;;;;;5046600;28;19987;-78
2022/09/23 13:51:49;;;;;;;;;;;27.50;26.20;;;;;;5043138;28;19923;-78
2022/09/23 13:54:30;;;;;;;;;;;26.80;26.80;;;;;;5051125;28;19916;-78
2022/09/23 13:56:56;;;;;;;;;;;27.50;27.70;;;;;;5048676;28;20728;-78
2022/09/23 13:59:48;;;;;;;;;;;27.10;28.40;;;;;;5038393;28;19999;-78
2022/09/23 14:02:15;;;;;;;;;;;26.10;28.40;;;;;;5038495;28;20388;-79
2022/09/23 14:04:41;;;;;;;;;;;27.00;29.40;;;;;;5038838;28;19916;-78
2022/09/23 14:07:07;;;;;;;;;;;28.60;28.50;;;;;;5037398;28;19921;-79
2022/09/23 14:09:37;;;;;;;;;;;27.40;27.80;;;;;;5049925;28;20452;-78
2022/09/23 14:12:04;;;;;;;;;;;28.40;27.70;;;;;;5037625;28;19913;-78
2022/09/23 14:14:30;;;;;;;;;;;28.80;27.10;;;;;;5033461;28;20044;-86
2022/09/23 14:16:57;;;;;;;;;;;29.20;26.50;;;;;;5032095;28;20382;-89
2022/09/23 14:19:24;;;;;;;;;;;28.50;25.70;;;;;;5020490;28;19951;-85
2022/09/23 14:21:51;;;;;;;;;;;30.20;25.60;;;;;;5043122;28;19908;-86
2022/09/23 14:24:33;;;;;;;;;;;30.00;26.00;;;;;;5042653;28;19921;-85
2022/09/23 14:26:59;;;;;;;;;;;29.20;24.40;;;;;;5044292;28;19952;-85
2022/09/23 14:29:27;;;;;;;;;;;27.70;26.50;;;;;;5044447;28;19916;-85
2022/09/23 14:31:58;;;;;;;;;;;26.40;29.50;;;;;;5046413;28;19935;-85
2022/09/23 14:34:42;;;;;;;;;;;25.50;29.00;;;;;;5042762;28;20280;-81
2022/09/23 14:39:55;;;;;;;;;;;25.50;31.70;;;;;;5044730;28;20346;-82
2022/09/23 14:42:21;;;;;;;;;;;24.80;31.80;;;;;;5046097;28;19924;-80
2022/09/23 14:44:48;;;;;;;;;;;25.60;31.20;;;;;;5041636;28;19917;-82
2022/09/23 14:47:14;;;;;;;;;;;25.10;33.40;;;;;;5041555;28;19947;-81
2022/09/23 14:50:35;;;;;;;;;;;25.70;32.20;;;;;;5037688;28;19957;-80
2022/09/23 14:52:31;;;;;;;;;;;27.00;30.20;;;;;;5042969;28;20369;-83
2022/09/23 14:54:56;;;;;;;;;;;27.40;29.60;;;;;;5048832;28;19913;-87